createdAt,value
2022-12-02T00:01:28.697Z,42.15
2022-12-02T00:03:57.237Z,42.88
2022-12-02T00:06:30.697Z,40.35
2022-12-02T00:09:34.105Z,41.08
2022-12-02T00:12:14.780Z,40.30
2022-12-02T00:14:42.206Z,44.15
2022-12-02T00:17:09.399Z,36.88
2022-12-02T00:19:36.993Z,43.65
2022-12-02T00:22:04.144Z,39.88
2022-12-02T00:24:31.665Z,45.13
2022-12-02T00:26:58.859Z,37.80
2022-12-02T00:29:28.087Z,36.03
2022-12-02T00:31:56.553Z,39.38
2022-12-02T00:34:24.198Z,44.42
2022-12-02T00:36:51.308Z,41.92
2022-12-02T00:39:18.749Z,36.75
2022-12-02T00:41:45.936Z,40.80
2022-12-02T00:44:32.304Z,37.40
2022-12-02T00:46:59.514Z,39.15
2022-12-02T00:49:27.857Z,39.13
2022-12-02T00:51:55.564Z,38.33
2022-12-02T00:54:23.121Z,34.30
2022-12-02T00:56:51.173Z,35.38
2022-12-02T00:59:18.944Z,39.92
2022-12-02T01:01:47.518Z,38.08
2022-12-02T01:04:15.172Z,38.80
2022-12-02T01:06:42.584Z,37.45
2022-12-02T01:09:10.650Z,39.53
2022-12-02T01:11:37.796Z,37.42
2022-12-02T01:14:05.355Z,36.05
2022-12-02T01:16:32.576Z,39.00
2022-12-02T01:18:59.973Z,37.85
2022-12-02T01:21:27.205Z,40.80
2022-12-02T01:23:54.924Z,37.22
2022-12-02T01:26:22.140Z,37.47
2022-12-02T01:28:49.755Z,40.35
2022-12-02T01:31:17.235Z,38.15
2022-12-02T01:33:44.734Z,42.00
2022-12-02T01:36:11.898Z,38.58
2022-12-02T01:38:39.448Z,42.88
2022-12-02T01:41:07.355Z,44.33
2022-12-02T01:43:35.146Z,41.20
2022-12-02T01:46:02.687Z,42.03
2022-12-02T01:48:30.594Z,42.00
2022-12-02T01:50:58.091Z,43.00
2022-12-02T01:53:26.206Z,40.78
2022-12-02T01:55:53.808Z,38.72
2022-12-02T01:58:25.440Z,43.22
2022-12-02T02:00:54.708Z,41.75
2022-12-02T02:03:22.769Z,42.80
2022-12-02T02:05:50.857Z,42.22
2022-12-02T02:08:18.674Z,42.70
2022-12-02T02:10:46.884Z,38.10
2022-12-02T02:13:17.265Z,41.45
2022-12-02T02:15:45.437Z,39.47
2022-12-02T02:18:13.408Z,36.58
2022-12-02T02:20:41.465Z,39.90
2022-12-02T02:23:09.332Z,38.95
2022-12-02T02:31:02.350Z,28.75
2022-12-02T02:33:37.745Z,35.00
2022-12-02T02:36:05.615Z,34.90
2022-12-02T02:38:34.216Z,35.45
2022-12-02T02:41:03.260Z,36.92
2022-12-02T02:43:31.787Z,38.10
2022-12-02T03:10:25.999Z,47.22
2022-12-02T03:15:39.018Z,45.33
2022-12-02T03:23:00.888Z,42.47
2022-12-02T03:25:33.026Z,48.47
2022-12-02T03:41:48.527Z,42.83
2022-12-02T03:44:16.515Z,43.70
2022-12-02T03:46:44.727Z,40.90
2022-12-02T03:49:12.775Z,42.10
2022-12-02T03:51:41.355Z,41.25
2022-12-02T03:54:08.550Z,47.47
2022-12-02T03:56:41.181Z,41.75
2022-12-02T03:59:10.045Z,42.92
2022-12-02T04:01:37.555Z,42.67
2022-12-02T04:04:04.887Z,42.33
2022-12-02T04:06:32.330Z,41.55
2022-12-02T04:08:59.886Z,45.92
2022-12-02T04:11:27.400Z,47.45
2022-12-02T04:13:54.537Z,49.28
2022-12-02T04:16:22.023Z,51.67
2022-12-02T04:18:49.251Z,50.22
2022-12-02T04:21:16.825Z,48.65
2022-12-02T04:23:44.029Z,48.08
2022-12-02T04:26:11.391Z,52.47
2022-12-02T04:28:38.513Z,46.53
2022-12-02T04:31:06.207Z,46.63
2022-12-02T04:33:33.404Z,46.33
2022-12-02T04:36:00.981Z,50.35
2022-12-02T04:38:28.301Z,44.90
2022-12-02T04:40:55.830Z,51.75
2022-12-02T04:43:22.971Z,46.38
2022-12-02T04:45:50.494Z,42.95
2022-12-02T04:48:17.707Z,48.83
2022-12-02T04:50:45.137Z,41.75
2022-12-02T05:57:03.815Z,56.63
2022-12-02T05:59:31.415Z,61.95
2022-12-02T06:01:59.479Z,65.57
2022-12-02T06:04:33.347Z,62.17
2022-12-02T06:07:02.572Z,57.45
2022-12-02T06:09:33.400Z,57.13
2022-12-02T06:12:03.311Z,62.80
2022-12-02T06:14:35.788Z,67.10
2022-12-02T06:31:20.069Z,52.78
2022-12-02T06:33:50.733Z,59.95
2022-12-02T06:36:25.371Z,49.55
2022-12-02T06:38:56.985Z,58.08
2022-12-02T06:41:24.292Z,53.83
2022-12-02T06:44:10.485Z,52.00
2022-12-02T06:46:37.933Z,55.50
2022-12-02T06:49:17.132Z,57.28
2022-12-02T06:51:44.619Z,51.78
2022-12-02T06:54:31.062Z,51.55
2022-12-02T06:57:01.310Z,56.58
2022-12-02T06:59:28.562Z,63.45
2022-12-02T07:01:58.249Z,60.85
2022-12-02T07:04:34.963Z,61.95
2022-12-02T07:07:21.027Z,50.92
2022-12-02T07:09:49.796Z,57.60
2022-12-02T07:12:21.727Z,52.83
2022-12-02T07:14:53.882Z,57.10
2022-12-02T07:17:29.906Z,54.25
2022-12-02T07:19:56.964Z,51.08
2022-12-02T07:22:30.589Z,58.25
2022-12-02T07:25:05.521Z,57.90
2022-12-02T07:42:35.388Z,51.47
2022-12-02T07:45:02.954Z,58.17
2022-12-02T07:47:32.159Z,61.33
2022-12-02T07:49:59.669Z,60.30
2022-12-02T07:52:26.861Z,52.85
2022-12-02T07:54:54.830Z,54.80
2022-12-02T07:57:22.658Z,48.00
2022-12-02T07:59:50.089Z,50.28
2022-12-02T08:02:18.076Z,47.13
2022-12-02T08:04:45.832Z,43.38
2022-12-02T08:07:13.228Z,47.92
2022-12-02T08:09:40.683Z,42.03
2022-12-02T08:12:08.188Z,42.10
2022-12-02T08:14:35.763Z,41.00
2022-12-02T08:17:03.330Z,34.60
2022-12-02T08:19:30.939Z,35.40
2022-12-02T08:21:58.208Z,38.35
2022-12-02T08:24:25.723Z,41.00
2022-12-02T08:26:53.143Z,34.35
2022-12-02T08:29:20.726Z,31.90
2022-12-02T08:31:48.002Z,30.02
2022-12-02T08:34:15.803Z,40.20
2022-12-02T08:36:43.127Z,41.45
2022-12-02T08:39:11.019Z,37.28
2022-12-02T08:41:38.964Z,37.63
2022-12-02T08:44:07.073Z,35.47
2022-12-02T08:46:34.831Z,38.45
2022-12-02T08:49:02.940Z,43.05
2022-12-02T08:51:30.325Z,49.13
2022-12-02T08:53:57.884Z,41.97
2022-12-02T08:56:25.110Z,53.00
2022-12-02T08:58:52.540Z,52.25
2022-12-02T09:01:19.876Z,43.85
2022-12-02T09:03:47.576Z,60.88
2022-12-02T09:06:14.911Z,63.40
2022-12-02T09:08:43.465Z,56.25
2022-12-02T09:11:14.986Z,54.65
2022-12-02T09:13:42.490Z,64.35
2022-12-02T09:16:09.819Z,65.97
2022-12-02T09:18:37.460Z,67.47
2022-12-02T09:21:04.765Z,68.38
2022-12-02T09:23:32.408Z,70.28
2022-12-02T09:25:59.692Z,70.50
2022-12-02T09:28:27.126Z,52.50
2022-12-02T09:30:54.371Z,53.67
2022-12-02T09:33:22.065Z,45.10
2022-12-02T09:35:49.349Z,39.55
2022-12-02T09:38:16.990Z,41.97
2022-12-02T09:40:44.455Z,42.88
2022-12-02T09:43:12.300Z,48.85
2022-12-02T09:45:41.259Z,42.10
2022-12-02T09:48:11.175Z,42.05
2022-12-02T09:50:39.974Z,44.78
2022-12-02T09:53:08.176Z,47.67
2022-12-02T09:55:37.157Z,36.00
2022-12-02T09:58:31.390Z,43.15
2022-12-02T10:00:58.507Z,41.20
2022-12-02T10:03:28.412Z,44.65
2022-12-02T10:05:56.418Z,42.50
2022-12-02T10:08:28.403Z,46.00
2022-12-02T10:10:59.584Z,37.47
2022-12-02T10:13:27.854Z,39.30
2022-12-02T10:15:55.276Z,38.63
2022-12-02T10:18:27.233Z,34.35
2022-12-02T10:20:54.727Z,32.55
2022-12-02T10:23:30.164Z,32.83
2022-12-02T10:26:13.397Z,35.00
2022-12-02T10:28:42.437Z,34.30
2022-12-02T10:31:12.872Z,34.38
2022-12-02T10:33:51.713Z,30.88
2022-12-02T10:36:32.579Z,36.83
2022-12-02T10:39:22.023Z,29.52
2022-12-02T10:42:10.542Z,29.02
2022-12-02T10:44:43.573Z,27.30
2022-12-02T10:47:26.555Z,26.52
2022-12-02T10:49:59.685Z,30.58
2022-12-02T10:52:28.600Z,25.33
2022-12-02T10:54:58.941Z,29.55
2022-12-02T10:57:30.432Z,27.42
2022-12-02T11:00:01.707Z,27.38
2022-12-02T11:02:37.989Z,26.88
2022-12-02T11:05:27.019Z,23.23
2022-12-02T11:07:57.256Z,24.17
2022-12-02T11:10:37.549Z,21.70
2022-12-02T11:13:07.602Z,21.63
2022-12-02T11:15:43.231Z,24.08
2022-12-02T11:18:39.041Z,23.48
2022-12-02T11:21:06.579Z,19.30
2022-12-02T11:23:34.940Z,21.33
2022-12-02T11:26:12.754Z,22.90
2022-12-02T11:29:04.089Z,21.65
2022-12-02T11:31:31.725Z,24.00
2022-12-02T11:34:06.438Z,23.02
2022-12-02T11:36:35.856Z,22.02
2022-12-02T11:39:09.810Z,22.58
2022-12-02T11:41:49.344Z,15.90
2022-12-02T11:44:29.765Z,20.50
2022-12-02T11:46:59.591Z,21.25
2022-12-02T11:49:42.680Z,22.27
2022-12-02T11:52:10.062Z,22.38
2022-12-02T11:54:44.556Z,24.90
2022-12-02T11:57:23.494Z,22.98
2022-12-02T11:59:51.796Z,21.75
2022-12-02T12:02:22.253Z,22.83
2022-12-02T12:05:07.769Z,28.25
2022-12-02T12:07:48.820Z,22.23
2022-12-02T12:10:36.602Z,25.35
2022-12-02T12:13:16.317Z,24.27
2022-12-02T12:15:58.255Z,23.83
2022-12-02T12:18:46.354Z,23.38
2022-12-02T12:21:32.440Z,26.30
2022-12-02T12:24:18.588Z,23.13
2022-12-02T12:26:49.084Z,25.98
2022-12-02T12:29:17.872Z,26.70
2022-12-02T12:31:45.673Z,24.92
2022-12-02T12:34:17.745Z,23.73
2022-12-02T12:36:46.065Z,25.10
2022-12-02T12:39:15.005Z,23.73
2022-12-02T12:42:00.246Z,22.38
2022-12-02T12:44:31.858Z,19.75
2022-12-02T12:47:02.769Z,22.58
2022-12-02T12:49:31.116Z,22.90
2022-12-02T12:51:58.662Z,27.05
2022-12-02T12:54:26.395Z,25.25
2022-12-02T12:56:53.683Z,26.23
2022-12-02T12:59:21.207Z,24.58
2022-12-02T13:01:48.918Z,26.08
2022-12-02T13:04:17.048Z,24.05
2022-12-02T13:06:46.903Z,26.02
2022-12-02T13:09:16.041Z,28.83
2022-12-02T13:11:43.699Z,24.80
2022-12-02T13:14:11.414Z,25.25
2022-12-02T13:16:38.713Z,30.77
2022-12-02T13:19:06.452Z,26.10
2022-12-02T13:21:33.699Z,28.90
2022-12-02T13:24:03.465Z,26.15
2022-12-02T13:26:30.651Z,27.33
2022-12-02T13:28:58.261Z,26.70
2022-12-02T13:31:25.687Z,27.80
2022-12-02T13:33:53.151Z,26.50
2022-12-02T13:36:20.542Z,27.77
2022-12-02T13:38:48.236Z,26.70
2022-12-02T13:41:15.531Z,27.13
2022-12-02T13:43:43.213Z,31.17
2022-12-02T13:46:10.658Z,34.80
2022-12-02T13:48:38.258Z,31.48
2022-12-02T13:51:05.582Z,29.00
2022-12-02T13:53:33.415Z,29.95
2022-12-02T13:56:00.647Z,28.83
2022-12-02T13:58:28.351Z,30.13
2022-12-02T14:00:55.588Z,32.70
2022-12-02T14:03:23.108Z,31.15
2022-12-02T14:05:50.313Z,32.20
2022-12-02T14:08:17.948Z,34.50
2022-12-02T14:10:45.206Z,32.20
2022-12-02T14:13:18.289Z,34.53
2022-12-02T14:15:48.416Z,34.65
2022-12-02T14:18:16.242Z,35.67
2022-12-02T14:20:43.553Z,36.83
2022-12-02T14:23:14.302Z,36.92
2022-12-02T14:25:41.578Z,38.50
2022-12-02T14:28:09.125Z,40.50
2022-12-02T14:30:36.319Z,39.13
2022-12-02T14:33:03.947Z,39.00
2022-12-02T14:35:31.406Z,40.55
2022-12-02T14:37:59.037Z,42.78
2022-12-02T14:40:28.546Z,38.80
2022-12-02T14:45:23.782Z,37.38
2022-12-02T14:47:51.324Z,40.47
2022-12-02T14:50:19.081Z,38.92
2022-12-02T14:52:46.699Z,42.50
2022-12-02T14:55:13.915Z,37.88
2022-12-02T14:57:41.961Z,42.15
2022-12-02T15:00:11.889Z,41.20
2022-12-02T15:02:39.796Z,38.53
2022-12-02T15:05:12.584Z,37.70
2022-12-02T15:07:41.941Z,37.35
2022-12-02T15:10:10.196Z,38.78
2022-12-02T15:12:37.993Z,39.05
2022-12-02T15:15:36.670Z,39.35
2022-12-02T15:17:56.614Z,36.67
2022-12-02T15:20:24.049Z,39.35
2022-12-02T15:22:51.721Z,36.05
2022-12-02T15:25:19.019Z,36.50
2022-12-02T15:27:49.466Z,37.67
2022-12-02T15:30:22.013Z,35.95
2022-12-02T15:32:49.786Z,34.50
2022-12-02T15:35:17.213Z,34.13
2022-12-02T15:37:45.190Z,29.75
2022-12-02T15:40:15.411Z,34.65
2022-12-02T15:42:43.279Z,33.40
2022-12-02T15:45:10.645Z,33.92
2022-12-02T15:47:38.418Z,33.22
2022-12-02T15:50:06.396Z,34.25
2022-12-02T15:52:36.398Z,35.45
2022-12-02T15:55:04.161Z,40.35
2022-12-02T15:57:34.450Z,37.70
2022-12-02T16:00:02.366Z,41.67
2022-12-02T16:02:33.836Z,39.30
2022-12-02T16:05:01.141Z,37.35
2022-12-02T16:07:29.005Z,39.10
2022-12-02T16:09:56.230Z,36.40
2022-12-02T16:12:23.734Z,40.17
2022-12-02T16:14:55.326Z,38.35
2022-12-02T16:17:23.415Z,36.78
2022-12-02T16:19:51.018Z,43.53
2022-12-02T16:22:18.906Z,36.83
2022-12-02T16:24:46.219Z,41.22
2022-12-02T16:27:14.187Z,40.92
2022-12-02T16:29:41.501Z,40.17
2022-12-02T16:32:09.424Z,41.03
2022-12-02T16:34:36.819Z,42.47
2022-12-02T16:37:04.700Z,40.97
2022-12-02T16:39:31.988Z,43.28
2022-12-02T16:41:59.780Z,43.63
2022-12-02T16:44:27.150Z,46.08
2022-12-02T16:46:54.751Z,49.00
2022-12-02T16:49:22.061Z,40.80
2022-12-02T16:51:49.896Z,42.28
2022-12-02T16:54:17.305Z,39.83
2022-12-02T16:56:45.177Z,40.35
2022-12-02T16:59:12.454Z,40.35
2022-12-02T17:01:40.103Z,38.30
2022-12-02T17:04:07.929Z,37.05
2022-12-02T17:06:36.001Z,39.38
2022-12-02T17:09:03.431Z,41.00
2022-12-02T17:11:31.086Z,38.15
2022-12-02T17:13:58.443Z,43.25
2022-12-02T17:16:26.038Z,46.30
2022-12-02T17:18:54.739Z,48.88
2022-12-02T17:21:22.285Z,43.25
2022-12-02T17:23:49.585Z,48.30
2022-12-02T17:26:17.480Z,49.47
2022-12-02T17:28:44.822Z,47.13
2022-12-02T17:31:12.587Z,41.75
2022-12-02T17:33:40.121Z,48.83
2022-12-02T17:36:08.422Z,44.88
2022-12-02T17:38:56.181Z,50.35
2022-12-02T17:41:36.267Z,45.80
2022-12-02T17:44:05.817Z,51.45
2022-12-02T17:46:44.879Z,47.40
2022-12-02T17:49:54.648Z,54.25
2022-12-02T17:53:18.987Z,58.65
2022-12-02T17:55:51.979Z,56.00
2022-12-02T17:58:34.572Z,61.03
2022-12-02T18:01:18.148Z,57.75
2022-12-02T18:04:50.769Z,57.72
2022-12-02T18:07:54.944Z,56.47
2022-12-02T18:10:49.815Z,57.40
2022-12-02T18:14:02.198Z,57.60
2022-12-02T18:16:59.655Z,56.30
2022-12-02T18:19:48.077Z,50.17
2022-12-02T18:22:56.936Z,52.80
2022-12-02T18:25:33.283Z,46.53
2022-12-02T18:28:06.420Z,52.53
2022-12-02T18:31:05.993Z,55.05
2022-12-02T18:33:43.872Z,57.78
2022-12-02T18:36:34.967Z,51.40
2022-12-02T18:39:08.971Z,49.92
2022-12-02T18:41:41.818Z,63.78
2022-12-02T18:44:14.394Z,54.70
2022-12-02T18:47:11.617Z,53.55
2022-12-02T18:49:55.045Z,58.80
2022-12-02T18:52:32.097Z,54.13
2022-12-02T18:55:03.991Z,61.65
2022-12-02T18:57:35.831Z,55.50
2022-12-02T19:00:09.650Z,56.33
2022-12-02T19:02:43.677Z,61.47
2022-12-02T19:05:19.265Z,58.50
2022-12-02T19:07:58.307Z,57.40
2022-12-02T19:10:35.835Z,67.90
2022-12-02T19:13:06.460Z,58.00
2022-12-02T19:15:38.878Z,68.93
2022-12-02T19:18:35.548Z,82.68
2022-12-02T19:21:13.185Z,58.38
2022-12-02T19:23:45.567Z,62.72
2022-12-02T19:26:18.090Z,52.03
2022-12-02T19:28:59.801Z,60.63
2022-12-02T19:31:32.998Z,57.90
2022-12-02T19:34:04.984Z,54.35
2022-12-02T19:36:37.478Z,57.53
2022-12-02T19:39:04.797Z,53.38
2022-12-02T19:41:32.350Z,56.92
2022-12-02T19:44:03.678Z,50.05
2022-12-02T19:46:32.065Z,50.17
2022-12-02T19:49:00.033Z,54.35
2022-12-02T19:51:27.950Z,52.67
2022-12-02T19:53:55.188Z,56.80
2022-12-02T19:56:22.881Z,53.17
2022-12-02T19:58:50.122Z,55.45
2022-12-02T20:01:17.570Z,52.58
2022-12-02T20:03:44.868Z,55.90
2022-12-02T20:06:13.673Z,56.83
2022-12-02T20:08:40.904Z,59.30
2022-12-02T20:11:08.842Z,57.72
2022-12-02T20:13:36.073Z,59.40
2022-12-02T20:16:03.680Z,58.22
2022-12-02T20:18:32.280Z,58.15
2022-12-02T20:21:00.357Z,56.42
2022-12-02T20:23:28.998Z,55.60
2022-12-02T20:25:57.271Z,59.60
2022-12-02T20:28:25.306Z,56.85
2022-12-02T20:30:53.115Z,54.55
2022-12-02T20:33:20.535Z,56.03
2022-12-02T20:35:48.165Z,56.40
2022-12-02T20:38:15.534Z,53.28
2022-12-02T20:40:43.206Z,58.97
2022-12-02T20:43:11.288Z,62.75
2022-12-02T20:45:41.349Z,60.42
2022-12-02T20:48:08.777Z,56.63
2022-12-02T20:50:36.791Z,55.72
2022-12-02T20:53:04.126Z,56.08
2022-12-02T20:55:31.778Z,49.08
2022-12-02T20:57:59.104Z,49.45
2022-12-02T21:00:26.939Z,47.10
2022-12-02T21:02:54.532Z,56.90
2022-12-02T21:05:24.432Z,53.42
2022-12-02T21:07:52.077Z,58.75
2022-12-02T21:10:19.786Z,49.65
2022-12-02T21:12:47.361Z,52.10
2022-12-02T21:15:17.400Z,50.45
2022-12-02T21:17:44.875Z,52.70
2022-12-02T21:20:17.823Z,52.03
2022-12-02T21:22:46.722Z,49.80
2022-12-02T21:25:14.661Z,51.60
2022-12-02T21:27:42.946Z,49.17
2022-12-02T21:30:11.425Z,44.90
2022-12-02T21:32:39.832Z,43.88
2022-12-02T21:35:09.901Z,46.80
2022-12-02T21:37:38.480Z,48.65
2022-12-02T21:40:07.219Z,56.80
2022-12-02T21:42:34.991Z,51.78
2022-12-02T21:45:08.230Z,49.85
2022-12-02T21:47:40.315Z,55.30
2022-12-02T21:50:10.951Z,50.67
2022-12-02T21:52:38.551Z,44.35
2022-12-02T21:55:06.709Z,47.40
2022-12-02T21:57:34.025Z,51.78
2022-12-02T22:00:01.764Z,51.40
2022-12-02T22:02:29.679Z,48.13
2022-12-02T22:04:57.482Z,51.00
2022-12-02T22:07:43.869Z,45.40
2022-12-02T22:10:14.603Z,50.42
2022-12-02T22:12:41.937Z,52.30
2022-12-02T22:15:10.419Z,48.20
2022-12-02T22:17:37.973Z,48.92
2022-12-02T22:20:07.061Z,48.63
2022-12-02T22:22:34.530Z,49.88
2022-12-02T22:25:02.286Z,52.45
2022-12-02T22:27:29.691Z,48.30
2022-12-02T22:29:58.676Z,45.22
2022-12-02T22:32:25.974Z,49.22
2022-12-02T22:34:53.852Z,46.47
2022-12-02T22:37:21.236Z,51.90
2022-12-02T22:39:48.789Z,49.20
2022-12-02T22:42:15.963Z,51.28
2022-12-02T22:44:43.491Z,53.35
2022-12-02T22:47:10.722Z,46.90
2022-12-02T22:49:38.365Z,44.90
2022-12-02T22:52:05.708Z,54.42
2022-12-02T22:54:33.303Z,47.97
2022-12-02T22:57:00.767Z,50.83
2022-12-02T22:59:28.427Z,50.53
2022-12-02T23:01:56.429Z,49.33
2022-12-02T23:04:24.086Z,46.05
2022-12-02T23:06:51.587Z,45.88
2022-12-02T23:09:19.235Z,50.90
2022-12-02T23:11:46.550Z,45.88
2022-12-02T23:14:14.133Z,51.35
2022-12-02T23:16:41.472Z,54.72
2022-12-02T23:19:08.975Z,46.42
2022-12-02T23:21:36.261Z,49.17
2022-12-02T23:24:04.129Z,52.05
2022-12-02T23:26:31.502Z,48.92
2022-12-02T23:28:59.223Z,52.80
2022-12-02T23:31:26.636Z,50.50
2022-12-02T23:33:54.382Z,52.20
2022-12-02T23:36:21.834Z,49.75
2022-12-02T23:38:49.655Z,51.83
2022-12-02T23:41:17.024Z,56.80
2022-12-02T23:43:44.607Z,53.85
2022-12-02T23:46:11.996Z,49.00
2022-12-02T23:48:39.580Z,53.17
2022-12-02T23:51:06.851Z,48.40
2022-12-02T23:53:34.377Z,50.72
2022-12-02T23:56:01.711Z,51.92
2022-12-02T23:58:29.338Z,54.25
